sensor_id;sensor_type;location;lat;lon;timestamp;P1;durP1;ratioP1;P2;durP2;ratioP2
2638;SDS011;1329;51.384;7.122;2024-02-21T00:01:35;19.87;;;10.97;;
2638;SDS011;1329;51.384;7.122;2024-02-21T00:04:02;17.93;;;10.37;;
2638;SDS011;1329;51.384;7.122;2024-02-21T00:06:30;14.97;;;10.50;;
2638;SDS011;1329;51.384;7.122;2024-02-21T00:08:59;16.77;;;10.00;;
2638;SDS011;1329;51.384;7.122;2024-02-21T00:11:26;16.10;;;11.10;;
2638;SDS011;1329;51.384;7.122;2024-02-21T00:13:54;15.97;;;10.63;;
2638;SDS011;1329;51.384;7.122;2024-02-21T00:16:21;16.83;;;10.53;;
2638;SDS011;1329;51.384;7.122;2024-02-21T00:18:49;13.97;;;10.07;;
2638;SDS011;1329;51.384;7.122;2024-02-21T00:21:16;15.17;;;10.53;;
2638;SDS011;1329;51.384;7.122;2024-02-21T00:23:44;14.60;;;10.77;;
2638;SDS011;1329;51.384;7.122;2024-02-21T00:26:14;15.33;;;10.07;;
2638;SDS011;1329;51.384;7.122;2024-02-21T00:28:41;17.13;;;11.17;;
2638;SDS011;1329;51.384;7.122;2024-02-21T00:31:08;17.13;;;10.17;;
2638;SDS011;1329;51.384;7.122;2024-02-21T00:33:35;19.47;;;11.63;;
2638;SDS011;1329;51.384;7.122;2024-02-21T00:36:03;17.47;;;11.27;;
2638;SDS011;1329;51.384;7.122;2024-02-21T00:38:30;14.53;;;9.80;;
2638;SDS011;1329;51.384;7.122;2024-02-21T00:40:58;16.70;;;11.43;;
2638;SDS011;1329;51.384;7.122;2024-02-21T00:43:28;17.27;;;11.00;;
2638;SDS011;1329;51.384;7.122;2024-02-21T00:45:55;16.40;;;10.53;;
2638;SDS011;1329;51.384;7.122;2024-02-21T00:48:22;17.08;;;10.70;;
2638;SDS011;1329;51.384;7.122;2024-02-21T00:50:49;17.53;;;11.20;;
2638;SDS011;1329;51.384;7.122;2024-02-21T00:53:17;15.50;;;10.47;;
2638;SDS011;1329;51.384;7.122;2024-02-21T00:55:44;14.23;;;10.27;;
2638;SDS011;1329;51.384;7.122;2024-02-21T00:58:11;17.73;;;11.07;;
2638;SDS011;1329;51.384;7.122;2024-02-21T01:00:40;16.43;;;10.83;;
2638;SDS011;1329;51.384;7.122;2024-02-21T01:03:07;17.80;;;10.60;;
2638;SDS011;1329;51.384;7.122;2024-02-21T01:05:34;19.93;;;11.57;;
2638;SDS011;1329;51.384;7.122;2024-02-21T01:08:01;16.63;;;9.93;;
2638;SDS011;1329;51.384;7.122;2024-02-21T01:10:29;16.13;;;10.67;;
2638;SDS011;1329;51.384;7.122;2024-02-21T01:12:56;19.07;;;10.57;;
2638;SDS011;1329;51.384;7.122;2024-02-21T01:15:23;17.10;;;10.73;;
2638;SDS011;1329;51.384;7.122;2024-02-21T01:17:52;17.03;;;10.23;;
2638;SDS011;1329;51.384;7.122;2024-02-21T01:20:20;15.70;;;10.73;;
2638;SDS011;1329;51.384;7.122;2024-02-21T01:22:47;16.70;;;10.17;;
2638;SDS011;1329;51.384;7.122;2024-02-21T01:25:15;17.67;;;11.00;;
2638;SDS011;1329;51.384;7.122;2024-02-21T01:27:42;16.70;;;11.20;;
2638;SDS011;1329;51.384;7.122;2024-02-21T01:30:10;18.50;;;11.77;;
2638;SDS011;1329;51.384;7.122;2024-02-21T01:32:38;19.40;;;11.30;;
2638;SDS011;1329;51.384;7.122;2024-02-21T01:35:08;14.90;;;11.23;;
2638;SDS011;1329;51.384;7.122;2024-02-21T01:37:38;18.23;;;11.80;;
2638;SDS011;1329;51.384;7.122;2024-02-21T01:40:05;17.17;;;11.40;;
2638;SDS011;1329;51.384;7.122;2024-02-21T01:42:37;17.27;;;10.77;;
2638;SDS011;1329;51.384;7.122;2024-02-21T01:45:06;18.07;;;10.87;;
2638;SDS011;1329;51.384;7.122;2024-02-21T01:47:34;20.93;;;11.47;;
2638;SDS011;1329;51.384;7.122;2024-02-21T01:50:02;18.43;;;11.30;;
2638;SDS011;1329;51.384;7.122;2024-02-21T01:52:32;16.90;;;10.83;;
2638;SDS011;1329;51.384;7.122;2024-02-21T01:55:00;15.63;;;11.02;;
2638;SDS011;1329;51.384;7.122;2024-02-21T01:57:28;18.20;;;11.50;;
2638;SDS011;1329;51.384;7.122;2024-02-21T01:59:56;17.70;;;11.17;;
2638;SDS011;1329;51.384;7.122;2024-02-21T02:02:24;17.50;;;11.50;;
2638;SDS011;1329;51.384;7.122;2024-02-21T02:04:51;16.10;;;11.33;;
2638;SDS011;1329;51.384;7.122;2024-02-21T02:07:19;16.13;;;10.53;;
2638;SDS011;1329;51.384;7.122;2024-02-21T02:09:47;16.07;;;10.37;;
2638;SDS011;1329;51.384;7.122;2024-02-21T02:12:15;16.77;;;11.37;;
2638;SDS011;1329;51.384;7.122;2024-02-21T02:14:42;16.90;;;11.23;;
2638;SDS011;1329;51.384;7.122;2024-02-21T02:17:09;17.03;;;10.93;;
2638;SDS011;1329;51.384;7.122;2024-02-21T02:19:37;18.33;;;10.70;;
2638;SDS011;1329;51.384;7.122;2024-02-21T02:22:06;14.53;;;10.90;;
2638;SDS011;1329;51.384;7.122;2024-02-21T02:24:39;17.03;;;10.83;;
2638;SDS011;1329;51.384;7.122;2024-02-21T02:27:06;15.67;;;10.40;;
2638;SDS011;1329;51.384;7.122;2024-02-21T02:29:34;16.60;;;10.77;;
2638;SDS011;1329;51.384;7.122;2024-02-21T02:32:00;18.90;;;11.60;;
2638;SDS011;1329;51.384;7.122;2024-02-21T02:34:28;16.20;;;10.40;;
2638;SDS011;1329;51.384;7.122;2024-02-21T02:36:55;16.73;;;10.83;;
2638;SDS011;1329;51.384;7.122;2024-02-21T02:39:22;15.77;;;10.67;;
2638;SDS011;1329;51.384;7.122;2024-02-21T02:41:51;19.97;;;11.03;;
2638;SDS011;1329;51.384;7.122;2024-02-21T02:44:18;16.63;;;10.50;;
2638;SDS011;1329;51.384;7.122;2024-02-21T02:46:45;14.73;;;10.37;;
2638;SDS011;1329;51.384;7.122;2024-02-21T02:49:13;14.87;;;10.47;;
2638;SDS011;1329;51.384;7.122;2024-02-21T02:51:41;16.53;;;10.27;;
2638;SDS011;1329;51.384;7.122;2024-02-21T02:54:08;17.67;;;10.63;;
2638;SDS011;1329;51.384;7.122;2024-02-21T02:56:35;16.70;;;9.87;;
2638;SDS011;1329;51.384;7.122;2024-02-21T02:59:04;15.13;;;10.53;;
2638;SDS011;1329;51.384;7.122;2024-02-21T03:01:33;14.63;;;10.20;;
2638;SDS011;1329;51.384;7.122;2024-02-21T03:04:00;17.83;;;10.53;;
2638;SDS011;1329;51.384;7.122;2024-02-21T03:06:27;14.63;;;10.63;;
2638;SDS011;1329;51.384;7.122;2024-02-21T03:08:54;15.00;;;10.07;;
2638;SDS011;1329;51.384;7.122;2024-02-21T03:11:21;13.90;;;10.07;;
2638;SDS011;1329;51.384;7.122;2024-02-21T03:13:53;14.53;;;10.43;;
2638;SDS011;1329;51.384;7.122;2024-02-21T03:16:23;16.67;;;10.50;;
2638;SDS011;1329;51.384;7.122;2024-02-21T03:18:51;15.23;;;10.40;;
2638;SDS011;1329;51.384;7.122;2024-02-21T03:21:19;15.57;;;10.07;;
2638;SDS011;1329;51.384;7.122;2024-02-21T03:23:46;13.63;;;10.17;;
2638;SDS011;1329;51.384;7.122;2024-02-21T03:26:13;14.23;;;10.37;;
2638;SDS011;1329;51.384;7.122;2024-02-21T03:28:42;17.53;;;9.90;;
2638;SDS011;1329;51.384;7.122;2024-02-21T03:31:10;13.73;;;10.30;;
2638;SDS011;1329;51.384;7.122;2024-02-21T03:33:40;15.00;;;10.03;;
2638;SDS011;1329;51.384;7.122;2024-02-21T03:36:12;13.67;;;9.83;;
2638;SDS011;1329;51.384;7.122;2024-02-21T03:38:40;12.30;;;9.10;;
2638;SDS011;1329;51.384;7.122;2024-02-21T03:41:07;13.83;;;10.10;;
2638;SDS011;1329;51.384;7.122;2024-02-21T03:43:34;12.67;;;9.13;;
2638;SDS011;1329;51.384;7.122;2024-02-21T03:46:01;14.43;;;9.50;;
2638;SDS011;1329;51.384;7.122;2024-02-21T03:48:28;13.47;;;9.63;;
2638;SDS011;1329;51.384;7.122;2024-02-21T03:50:57;14.67;;;9.87;;
2638;SDS011;1329;51.384;7.122;2024-02-21T03:53:24;13.37;;;10.00;;
2638;SDS011;1329;51.384;7.122;2024-02-21T03:55:51;14.87;;;9.50;;
2638;SDS011;1329;51.384;7.122;2024-02-21T03:58:18;14.10;;;9.43;;
2638;SDS011;1329;51.384;7.122;2024-02-21T04:00:45;13.43;;;9.50;;
2638;SDS011;1329;51.384;7.122;2024-02-21T04:03:12;13.70;;;9.67;;
2638;SDS011;1329;51.384;7.122;2024-02-21T04:05:40;12.67;;;9.33;;
2638;SDS011;1329;51.384;7.122;2024-02-21T04:08:08;14.27;;;9.43;;
2638;SDS011;1329;51.384;7.122;2024-02-21T04:10:35;13.83;;;9.17;;
2638;SDS011;1329;51.384;7.122;2024-02-21T04:13:02;15.60;;;8.70;;
2638;SDS011;1329;51.384;7.122;2024-02-21T04:15:31;14.73;;;9.70;;
2638;SDS011;1329;51.384;7.122;2024-02-21T04:17:58;14.17;;;9.00;;
2638;SDS011;1329;51.384;7.122;2024-02-21T04:20:25;12.60;;;9.23;;
2638;SDS011;1329;51.384;7.122;2024-02-21T04:22:53;13.87;;;9.27;;
2638;SDS011;1329;51.384;7.122;2024-02-21T04:25:22;11.40;;;8.73;;
2638;SDS011;1329;51.384;7.122;2024-02-21T04:27:51;11.67;;;8.47;;
2638;SDS011;1329;51.384;7.122;2024-02-21T04:30:18;11.63;;;8.57;;
2638;SDS011;1329;51.384;7.122;2024-02-21T04:32:46;14.00;;;8.47;;
2638;SDS011;1329;51.384;7.122;2024-02-21T04:35:13;13.00;;;8.27;;
2638;SDS011;1329;51.384;7.122;2024-02-21T04:37:43;10.70;;;8.10;;
2638;SDS011;1329;51.384;7.122;2024-02-21T04:40:11;13.23;;;8.73;;
2638;SDS011;1329;51.384;7.122;2024-02-21T04:42:40;10.97;;;8.37;;
2638;SDS011;1329;51.384;7.122;2024-02-21T04:45:08;12.47;;;8.53;;
2638;SDS011;1329;51.384;7.122;2024-02-21T04:47:36;14.03;;;8.63;;
2638;SDS011;1329;51.384;7.122;2024-02-21T04:50:04;11.43;;;8.17;;
2638;SDS011;1329;51.384;7.122;2024-02-21T04:52:32;13.03;;;8.33;;
2638;SDS011;1329;51.384;7.122;2024-02-21T04:54:59;11.03;;;8.10;;
2638;SDS011;1329;51.384;7.122;2024-02-21T04:57:27;12.87;;;8.23;;
2638;SDS011;1329;51.384;7.122;2024-02-21T04:59:55;13.33;;;8.40;;
2638;SDS011;1329;51.384;7.122;2024-02-21T05:02:23;10.30;;;7.80;;
2638;SDS011;1329;51.384;7.122;2024-02-21T05:04:52;10.50;;;8.07;;
2638;SDS011;1329;51.384;7.122;2024-02-21T05:07:19;10.00;;;7.20;;
2638;SDS011;1329;51.384;7.122;2024-02-21T05:09:46;12.47;;;7.33;;
2638;SDS011;1329;51.384;7.122;2024-02-21T05:12:14;10.38;;;8.07;;
2638;SDS011;1329;51.384;7.122;2024-02-21T05:14:43;10.97;;;7.47;;
2638;SDS011;1329;51.384;7.122;2024-02-21T05:17:12;10.27;;;7.37;;
2638;SDS011;1329;51.384;7.122;2024-02-21T05:19:39;10.27;;;7.43;;
2638;SDS011;1329;51.384;7.122;2024-02-21T05:22:07;10.43;;;7.53;;
2638;SDS011;1329;51.384;7.122;2024-02-21T05:24:34;10.30;;;7.33;;
2638;SDS011;1329;51.384;7.122;2024-02-21T05:27:02;13.20;;;7.70;;
2638;SDS011;1329;51.384;7.122;2024-02-21T05:29:29;11.38;;;8.10;;
2638;SDS011;1329;51.384;7.122;2024-02-21T05:31:57;11.23;;;7.43;;
2638;SDS011;1329;51.384;7.122;2024-02-21T05:34:26;11.43;;;7.40;;
2638;SDS011;1329;51.384;7.122;2024-02-21T05:36:54;10.13;;;7.37;;
2638;SDS011;1329;51.384;7.122;2024-02-21T05:39:22;9.60;;;7.17;;
2638;SDS011;1329;51.384;7.122;2024-02-21T05:41:50;12.20;;;7.77;;
2638;SDS011;1329;51.384;7.122;2024-02-21T05:44:18;11.30;;;7.37;;
2638;SDS011;1329;51.384;7.122;2024-02-21T05:46:47;10.73;;;7.77;;
2638;SDS011;1329;51.384;7.122;2024-02-21T05:49:14;10.80;;;6.80;;
2638;SDS011;1329;51.384;7.122;2024-02-21T05:51:43;9.47;;;6.87;;
2638;SDS011;1329;51.384;7.122;2024-02-21T05:54:10;11.30;;;7.37;;
2638;SDS011;1329;51.384;7.122;2024-02-21T05:56:38;9.83;;;7.00;;
2638;SDS011;1329;51.384;7.122;2024-02-21T05:59:05;9.50;;;6.90;;
2638;SDS011;1329;51.384;7.122;2024-02-21T06:01:32;12.80;;;7.00;;
2638;SDS011;1329;51.384;7.122;2024-02-21T06:03:59;10.70;;;6.70;;
2638;SDS011;1329;51.384;7.122;2024-02-21T06:06:27;11.60;;;7.33;;
2638;SDS011;1329;51.384;7.122;2024-02-21T06:08:56;10.40;;;7.40;;
2638;SDS011;1329;51.384;7.122;2024-02-21T06:11:24;10.00;;;6.50;;
2638;SDS011;1329;51.384;7.122;2024-02-21T06:13:51;7.57;;;6.27;;
2638;SDS011;1329;51.384;7.122;2024-02-21T06:16:18;11.07;;;7.13;;
2638;SDS011;1329;51.384;7.122;2024-02-21T06:18:46;10.87;;;6.23;;
2638;SDS011;1329;51.384;7.122;2024-02-21T06:21:13;11.27;;;6.73;;
2638;SDS011;1329;51.384;7.122;2024-02-21T06:23:42;7.67;;;6.33;;
2638;SDS011;1329;51.384;7.122;2024-02-21T06:26:11;10.37;;;7.20;;
2638;SDS011;1329;51.384;7.122;2024-02-21T06:28:38;8.70;;;6.53;;
2638;SDS011;1329;51.384;7.122;2024-02-21T06:31:05;9.40;;;6.03;;
2638;SDS011;1329;51.384;7.122;2024-02-21T06:33:33;9.83;;;6.63;;
2638;SDS011;1329;51.384;7.122;2024-02-21T06:36:00;8.57;;;6.17;;
2638;SDS011;1329;51.384;7.122;2024-02-21T06:38:27;9.27;;;6.23;;
2638;SDS011;1329;51.384;7.122;2024-02-21T06:40:55;7.67;;;5.80;;
2638;SDS011;1329;51.384;7.122;2024-02-21T06:43:25;9.10;;;6.40;;
2638;SDS011;1329;51.384;7.122;2024-02-21T06:45:52;9.97;;;6.50;;
2638;SDS011;1329;51.384;7.122;2024-02-21T06:48:22;10.53;;;6.47;;
2638;SDS011;1329;51.384;7.122;2024-02-21T06:50:49;9.10;;;6.30;;
2638;SDS011;1329;51.384;7.122;2024-02-21T06:53:16;10.23;;;6.87;;
2638;SDS011;1329;51.384;7.122;2024-02-21T06:55:44;10.00;;;6.57;;
2638;SDS011;1329;51.384;7.122;2024-02-21T06:58:11;8.77;;;6.03;;
2638;SDS011;1329;51.384;7.122;2024-02-21T07:00:42;9.07;;;6.10;;
2638;SDS011;1329;51.384;7.122;2024-02-21T07:03:10;9.40;;;5.90;;
2638;SDS011;1329;51.384;7.122;2024-02-21T07:05:37;9.27;;;6.10;;
2638;SDS011;1329;51.384;7.122;2024-02-21T07:08:05;10.10;;;6.17;;
2638;SDS011;1329;51.384;7.122;2024-02-21T07:10:32;8.77;;;6.20;;
2638;SDS011;1329;51.384;7.122;2024-02-21T07:13:00;7.63;;;5.50;;
2638;SDS011;1329;51.384;7.122;2024-02-21T07:15:27;9.40;;;6.87;;
2638;SDS011;1329;51.384;7.122;2024-02-21T07:17:57;9.23;;;6.13;;
2638;SDS011;1329;51.384;7.122;2024-02-21T07:20:25;9.77;;;6.80;;
2638;SDS011;1329;51.384;7.122;2024-02-21T07:22:52;10.17;;;6.20;;
2638;SDS011;1329;51.384;7.122;2024-02-21T07:25:20;9.63;;;5.70;;
2638;SDS011;1329;51.384;7.122;2024-02-21T07:27:47;10.30;;;6.20;;
2638;SDS011;1329;51.384;7.122;2024-02-21T07:30:16;8.37;;;5.70;;
2638;SDS011;1329;51.384;7.122;2024-02-21T07:32:43;9.07;;;5.57;;
2638;SDS011;1329;51.384;7.122;2024-02-21T07:35:13;8.47;;;6.13;;
2638;SDS011;1329;51.384;7.122;2024-02-21T07:37:41;8.60;;;5.63;;
2638;SDS011;1329;51.384;7.122;2024-02-21T07:40:12;8.70;;;5.80;;
2638;SDS011;1329;51.384;7.122;2024-02-21T07:42:40;9.13;;;5.50;;
2638;SDS011;1329;51.384;7.122;2024-02-21T07:45:08;9.53;;;6.03;;
2638;SDS011;1329;51.384;7.122;2024-02-21T07:47:35;9.03;;;6.03;;
2638;SDS011;1329;51.384;7.122;2024-02-21T07:50:03;8.43;;;5.80;;
2638;SDS011;1329;51.384;7.122;2024-02-21T07:52:34;8.47;;;5.73;;
2638;SDS011;1329;51.384;7.122;2024-02-21T07:55:01;8.37;;;5.77;;
2638;SDS011;1329;51.384;7.122;2024-02-21T07:57:29;8.93;;;5.67;;
2638;SDS011;1329;51.384;7.122;2024-02-21T07:59:56;7.27;;;5.87;;
2638;SDS011;1329;51.384;7.122;2024-02-21T08:02:24;10.50;;;5.83;;
2638;SDS011;1329;51.384;7.122;2024-02-21T08:04:51;7.53;;;5.53;;
2638;SDS011;1329;51.384;7.122;2024-02-21T08:07:18;5.53;;;4.30;;
2638;SDS011;1329;51.384;7.122;2024-02-21T08:09:47;6.93;;;4.83;;
2638;SDS011;1329;51.384;7.122;2024-02-21T08:12:15;8.13;;;5.13;;
2638;SDS011;1329;51.384;7.122;2024-02-21T08:14:42;6.23;;;4.53;;
2638;SDS011;1329;51.384;7.122;2024-02-21T08:17:10;6.63;;;4.77;;
2638;SDS011;1329;51.384;7.122;2024-02-21T08:19:37;7.73;;;4.60;;
2638;SDS011;1329;51.384;7.122;2024-02-21T08:22:06;6.50;;;4.60;;
2638;SDS011;1329;51.384;7.122;2024-02-21T08:24:33;9.13;;;4.80;;
2638;SDS011;1329;51.384;7.122;2024-02-21T08:27:04;6.03;;;4.32;;
2638;SDS011;1329;51.384;7.122;2024-02-21T08:29:32;7.75;;;4.75;;
2638;SDS011;1329;51.384;7.122;2024-02-21T08:31:59;7.90;;;4.80;;
2638;SDS011;1329;51.384;7.122;2024-02-21T08:34:27;6.95;;;4.68;;
2638;SDS011;1329;51.384;7.122;2024-02-21T08:36:55;8.07;;;4.57;;
2638;SDS011;1329;51.384;7.122;2024-02-21T08:39:23;7.65;;;4.63;;
2638;SDS011;1329;51.384;7.122;2024-02-21T08:41:51;8.00;;;4.53;;
2638;SDS011;1329;51.384;7.122;2024-02-21T08:44:21;8.07;;;5.07;;
2638;SDS011;1329;51.384;7.122;2024-02-21T08:46:51;6.55;;;4.72;;
2638;SDS011;1329;51.384;7.122;2024-02-21T08:49:18;6.27;;;4.80;;
2638;SDS011;1329;51.384;7.122;2024-02-21T08:51:46;9.00;;;5.10;;
2638;SDS011;1329;51.384;7.122;2024-02-21T08:54:13;8.77;;;5.07;;
2638;SDS011;1329;51.384;7.122;2024-02-21T08:56:41;8.50;;;5.20;;
2638;SDS011;1329;51.384;7.122;2024-02-21T08:59:09;7.57;;;4.80;;
2638;SDS011;1329;51.384;7.122;2024-02-21T09:01:38;5.57;;;4.67;;
2638;SDS011;1329;51.384;7.122;2024-02-21T09:04:05;10.17;;;5.53;;
2638;SDS011;1329;51.384;7.122;2024-02-21T09:06:33;7.90;;;5.00;;
2638;SDS011;1329;51.384;7.122;2024-02-21T09:09:04;6.53;;;5.27;;
2638;SDS011;1329;51.384;7.122;2024-02-21T09:11:33;8.63;;;5.33;;
2638;SDS011;1329;51.384;7.122;2024-02-21T09:14:00;9.90;;;5.67;;
2638;SDS011;1329;51.384;7.122;2024-02-21T09:16:29;8.87;;;5.60;;
2638;SDS011;1329;51.384;7.122;2024-02-21T09:18:58;8.00;;;6.20;;
2638;SDS011;1329;51.384;7.122;2024-02-21T09:21:27;9.93;;;6.00;;
2638;SDS011;1329;51.384;7.122;2024-02-21T09:23:54;9.37;;;5.73;;
2638;SDS011;1329;51.384;7.122;2024-02-21T09:26:22;11.00;;;6.13;;
2638;SDS011;1329;51.384;7.122;2024-02-21T09:28:51;8.73;;;5.53;;
2638;SDS011;1329;51.384;7.122;2024-02-21T09:31:19;8.63;;;5.35;;
2638;SDS011;1329;51.384;7.122;2024-02-21T09:33:47;8.43;;;5.73;;
2638;SDS011;1329;51.384;7.122;2024-02-21T09:36:15;7.53;;;5.23;;
2638;SDS011;1329;51.384;7.122;2024-02-21T09:38:43;9.20;;;5.80;;
2638;SDS011;1329;51.384;7.122;2024-02-21T09:41:14;8.18;;;5.47;;
2638;SDS011;1329;51.384;7.122;2024-02-21T09:43:44;8.23;;;6.10;;
2638;SDS011;1329;51.384;7.122;2024-02-21T09:46:13;8.83;;;6.50;;
2638;SDS011;1329;51.384;7.122;2024-02-21T09:48:52;9.17;;;6.63;;
2638;SDS011;1329;51.384;7.122;2024-02-21T09:51:34;7.77;;;5.87;;
2638;SDS011;1329;51.384;7.122;2024-02-21T09:54:03;9.43;;;5.97;;
2638;SDS011;1329;51.384;7.122;2024-02-21T09:56:34;9.47;;;6.40;;
2638;SDS011;1329;51.384;7.122;2024-02-21T09:59:01;9.50;;;6.37;;
2638;SDS011;1329;51.384;7.122;2024-02-21T10:01:30;9.13;;;6.13;;
2638;SDS011;1329;51.384;7.122;2024-02-21T10:03:58;8.75;;;5.88;;
2638;SDS011;1329;51.384;7.122;2024-02-21T10:06:25;10.60;;;6.07;;
2638;SDS011;1329;51.384;7.122;2024-02-21T10:08:54;11.30;;;6.07;;
2638;SDS011;1329;51.384;7.122;2024-02-21T10:11:24;8.73;;;6.53;;
2638;SDS011;1329;51.384;7.122;2024-02-21T10:14:02;8.65;;;5.57;;
2638;SDS011;1329;51.384;7.122;2024-02-21T10:16:31;10.48;;;7.15;;
2638;SDS011;1329;51.384;7.122;2024-02-21T10:18:58;8.70;;;6.63;;
2638;SDS011;1329;51.384;7.122;2024-02-21T10:21:26;11.02;;;6.75;;
2638;SDS011;1329;51.384;7.122;2024-02-21T10:23:56;8.40;;;6.20;;
2638;SDS011;1329;51.384;7.122;2024-02-21T10:26:23;8.73;;;5.85;;
2638;SDS011;1329;51.384;7.122;2024-02-21T10:28:51;7.95;;;6.60;;
2638;SDS011;1329;51.384;7.122;2024-02-21T10:31:22;10.18;;;6.43;;
2638;SDS011;1329;51.384;7.122;2024-02-21T10:33:55;7.28;;;6.20;;
2638;SDS011;1329;51.384;7.122;2024-02-21T10:36:23;8.38;;;6.15;;
2638;SDS011;1329;51.384;7.122;2024-02-21T10:38:51;9.35;;;5.70;;
2638;SDS011;1329;51.384;7.122;2024-02-21T10:41:20;7.30;;;5.80;;
2638;SDS011;1329;51.384;7.122;2024-02-21T10:43:50;7.70;;;6.28;;
2638;SDS011;1329;51.384;7.122;2024-02-21T10:46:19;6.55;;;5.90;;
2638;SDS011;1329;51.384;7.122;2024-02-21T10:48:51;7.10;;;5.88;;
2638;SDS011;1329;51.384;7.122;2024-02-21T10:51:29;6.35;;;5.57;;
2638;SDS011;1329;51.384;7.122;2024-02-21T10:54:05;6.03;;;5.47;;
2638;SDS011;1329;51.384;7.122;2024-02-21T10:56:46;7.68;;;6.07;;
2638;SDS011;1329;51.384;7.122;2024-02-21T10:59:17;7.40;;;5.68;;
2638;SDS011;1329;51.384;7.122;2024-02-21T11:01:46;7.45;;;6.10;;
2638;SDS011;1329;51.384;7.122;2024-02-21T11:04:14;9.52;;;6.05;;
2638;SDS011;1329;51.384;7.122;2024-02-21T11:06:42;6.93;;;6.15;;
2638;SDS011;1329;51.384;7.122;2024-02-21T11:09:10;7.97;;;6.07;;
2638;SDS011;1329;51.384;7.122;2024-02-21T11:11:39;8.10;;;5.80;;
2638;SDS011;1329;51.384;7.122;2024-02-21T11:14:09;7.60;;;5.93;;
2638;SDS011;1329;51.384;7.122;2024-02-21T11:16:43;7.95;;;5.40;;
2638;SDS011;1329;51.384;7.122;2024-02-21T11:19:19;8.82;;;5.68;;
2638;SDS011;1329;51.384;7.122;2024-02-21T11:21:47;7.20;;;5.60;;
2638;SDS011;1329;51.384;7.122;2024-02-21T11:24:25;8.05;;;5.38;;
2638;SDS011;1329;51.384;7.122;2024-02-21T11:26:53;5.53;;;4.75;;
2638;SDS011;1329;51.384;7.122;2024-02-21T11:29:25;6.25;;;4.47;;
2638;SDS011;1329;51.384;7.122;2024-02-21T11:31:58;7.07;;;5.28;;
2638;SDS011;1329;51.384;7.122;2024-02-21T11:34:32;6.22;;;4.65;;
2638;SDS011;1329;51.384;7.122;2024-02-21T11:36:59;7.80;;;4.75;;
2638;SDS011;1329;51.384;7.122;2024-02-21T11:39:26;6.47;;;4.55;;
2638;SDS011;1329;51.384;7.122;2024-02-21T11:42:02;6.20;;;4.45;;
2638;SDS011;1329;51.384;7.122;2024-02-21T11:44:32;5.25;;;4.28;;
2638;SDS011;1329;51.384;7.122;2024-02-21T11:47:00;6.95;;;4.70;;
2638;SDS011;1329;51.384;7.122;2024-02-21T11:49:28;6.95;;;4.20;;
2638;SDS011;1329;51.384;7.122;2024-02-21T11:51:57;5.53;;;4.28;;
2638;SDS011;1329;51.384;7.122;2024-02-21T11:54:26;6.32;;;4.25;;
2638;SDS011;1329;51.384;7.122;2024-02-21T11:56:53;5.20;;;3.95;;
2638;SDS011;1329;51.384;7.122;2024-02-21T11:59:20;5.88;;;3.85;;
2638;SDS011;1329;51.384;7.122;2024-02-21T12:01:49;7.03;;;3.85;;
2638;SDS011;1329;51.384;7.122;2024-02-21T12:04:18;6.38;;;3.85;;
2638;SDS011;1329;51.384;7.122;2024-02-21T12:06:48;5.35;;;3.80;;
2638;SDS011;1329;51.384;7.122;2024-02-21T12:09:16;6.10;;;3.67;;
2638;SDS011;1329;51.384;7.122;2024-02-21T12:11:43;6.75;;;3.78;;
2638;SDS011;1329;51.384;7.122;2024-02-21T12:14:15;4.63;;;3.28;;
2638;SDS011;1329;51.384;7.122;2024-02-21T12:16:43;5.05;;;3.70;;
2638;SDS011;1329;51.384;7.122;2024-02-21T12:19:14;4.75;;;3.15;;
2638;SDS011;1329;51.384;7.122;2024-02-21T12:21:42;5.55;;;3.15;;
2638;SDS011;1329;51.384;7.122;2024-02-21T12:24:13;5.30;;;3.10;;
2638;SDS011;1329;51.384;7.122;2024-02-21T12:26:41;5.22;;;3.58;;
2638;SDS011;1329;51.384;7.122;2024-02-21T12:29:09;6.15;;;3.22;;
2638;SDS011;1329;51.384;7.122;2024-02-21T12:31:36;6.65;;;3.00;;
2638;SDS011;1329;51.384;7.122;2024-02-21T12:34:04;5.95;;;3.20;;
2638;SDS011;1329;51.384;7.122;2024-02-21T12:36:32;4.20;;;2.95;;
2638;SDS011;1329;51.384;7.122;2024-02-21T12:38:59;3.88;;;3.00;;
2638;SDS011;1329;51.384;7.122;2024-02-21T12:41:28;5.60;;;2.97;;
2638;SDS011;1329;51.384;7.122;2024-02-21T12:43:57;5.78;;;2.92;;
2638;SDS011;1329;51.384;7.122;2024-02-21T12:46:24;4.70;;;3.00;;
2638;SDS011;1329;51.384;7.122;2024-02-21T12:48:51;4.75;;;2.78;;
2638;SDS011;1329;51.384;7.122;2024-02-21T12:51:18;3.90;;;2.70;;
2638;SDS011;1329;51.384;7.122;2024-02-21T12:53:47;3.92;;;2.42;;
2638;SDS011;1329;51.384;7.122;2024-02-21T12:56:15;4.43;;;2.75;;
2638;SDS011;1329;51.384;7.122;2024-02-21T12:58:42;6.10;;;3.25;;
2638;SDS011;1329;51.384;7.122;2024-02-21T13:01:09;4.75;;;2.63;;
2638;SDS011;1329;51.384;7.122;2024-02-21T13:03:37;4.70;;;2.75;;
2638;SDS011;1329;51.384;7.122;2024-02-21T13:06:05;4.13;;;2.72;;
2638;SDS011;1329;51.384;7.122;2024-02-21T13:08:35;4.20;;;2.80;;
2638;SDS011;1329;51.384;7.122;2024-02-21T13:11:04;5.32;;;2.85;;
2638;SDS011;1329;51.384;7.122;2024-02-21T13:13:31;5.95;;;2.80;;
2638;SDS011;1329;51.384;7.122;2024-02-21T13:15:58;6.35;;;2.75;;
2638;SDS011;1329;51.384;7.122;2024-02-21T13:18:26;4.72;;;2.92;;
2638;SDS011;1329;51.384;7.122;2024-02-21T13:20:53;6.78;;;3.10;;
2638;SDS011;1329;51.384;7.122;2024-02-21T13:23:20;4.15;;;2.50;;
2638;SDS011;1329;51.384;7.122;2024-02-21T13:25:47;4.53;;;2.67;;
2638;SDS011;1329;51.384;7.122;2024-02-21T13:28:15;4.43;;;2.50;;
2638;SDS011;1329;51.384;7.122;2024-02-21T13:30:42;5.78;;;2.80;;
2638;SDS011;1329;51.384;7.122;2024-02-21T13:33:10;5.82;;;2.83;;
2638;SDS011;1329;51.384;7.122;2024-02-21T13:35:37;5.85;;;2.65;;
2638;SDS011;1329;51.384;7.122;2024-02-21T13:38:04;7.03;;;3.00;;
2638;SDS011;1329;51.384;7.122;2024-02-21T13:40:32;5.15;;;2.50;;
2638;SDS011;1329;51.384;7.122;2024-02-21T13:42:59;6.28;;;2.80;;
2638;SDS011;1329;51.384;7.122;2024-02-21T13:45:27;3.65;;;2.63;;
2638;SDS011;1329;51.384;7.122;2024-02-21T13:47:56;4.15;;;2.70;;
2638;SDS011;1329;51.384;7.122;2024-02-21T13:50:27;4.45;;;2.80;;
2638;SDS011;1329;51.384;7.122;2024-02-21T13:52:57;5.15;;;2.53;;
2638;SDS011;1329;51.384;7.122;2024-02-21T13:55:24;5.32;;;2.58;;
2638;SDS011;1329;51.384;7.122;2024-02-21T13:57:52;3.78;;;2.33;;
2638;SDS011;1329;51.384;7.122;2024-02-21T14:00:19;3.90;;;2.40;;
2638;SDS011;1329;51.384;7.122;2024-02-21T14:02:47;4.40;;;2.70;;
2638;SDS011;1329;51.384;7.122;2024-02-21T14:05:14;3.88;;;2.58;;
2638;SDS011;1329;51.384;7.122;2024-02-21T14:07:41;4.20;;;2.75;;
2638;SDS011;1329;51.384;7.122;2024-02-21T14:10:08;5.07;;;2.58;;
2638;SDS011;1329;51.384;7.122;2024-02-21T14:12:35;5.28;;;2.75;;
2638;SDS011;1329;51.384;7.122;2024-02-21T14:15:04;3.25;;;2.42;;
2638;SDS011;1329;51.384;7.122;2024-02-21T14:17:32;4.90;;;2.78;;
2638;SDS011;1329;51.384;7.122;2024-02-21T14:20:01;4.68;;;2.65;;
2638;SDS011;1329;51.384;7.122;2024-02-21T14:22:29;4.53;;;2.40;;
2638;SDS011;1329;51.384;7.122;2024-02-21T14:24:56;3.95;;;2.53;;
2638;SDS011;1329;51.384;7.122;2024-02-21T14:27:23;3.70;;;2.53;;
2638;SDS011;1329;51.384;7.122;2024-02-21T14:29:53;4.60;;;2.72;;
2638;SDS011;1329;51.384;7.122;2024-02-21T14:32:20;5.18;;;2.70;;
2638;SDS011;1329;51.384;7.122;2024-02-21T14:34:47;3.60;;;2.30;;
2638;SDS011;1329;51.384;7.122;2024-02-21T14:37:16;7.57;;;2.95;;
2638;SDS011;1329;51.384;7.122;2024-02-21T14:39:43;3.70;;;2.40;;
2638;SDS011;1329;51.384;7.122;2024-02-21T14:42:10;5.68;;;2.90;;
2638;SDS011;1329;51.384;7.122;2024-02-21T14:44:37;3.80;;;2.47;;
2638;SDS011;1329;51.384;7.122;2024-02-21T14:47:04;4.47;;;2.47;;
2638;SDS011;1329;51.384;7.122;2024-02-21T14:49:32;3.72;;;2.22;;
2638;SDS011;1329;51.384;7.122;2024-02-21T14:51:59;6.50;;;2.45;;
2638;SDS011;1329;51.384;7.122;2024-02-21T14:54:27;4.60;;;2.50;;
2638;SDS011;1329;51.384;7.122;2024-02-21T14:56:54;5.10;;;2.47;;
2638;SDS011;1329;51.384;7.122;2024-02-21T14:59:21;4.35;;;2.50;;
2638;SDS011;1329;51.384;7.122;2024-02-21T15:01:48;4.85;;;2.53;;
2638;SDS011;1329;51.384;7.122;2024-02-21T15:04:18;4.90;;;2.38;;
2638;SDS011;1329;51.384;7.122;2024-02-21T15:06:45;5.22;;;2.85;;
2638;SDS011;1329;51.384;7.122;2024-02-21T15:09:13;3.80;;;2.45;;
2638;SDS011;1329;51.384;7.122;2024-02-21T15:11:42;4.30;;;2.67;;